Hugo, OK

1:07 PM CDT on March 24, 2017 (GMT -0500)
Stamper Municipal

Weather History for KHHW - November, 2012

Change the Weather History Date:

Friday, November 30, 2012

  Actual Average Record
Temperature  
Mean Temperature 54 °F -  
Max Temperature 64 °F 60 °F 79 °F (2014)
Min Temperature 43 °F 37 °F 36 °F (2013)
Degree Days  
Heating Degree Days 12    
Growing Degree Days 4 (Base 50)    
Moisture  
Dew Point 48 °F    
Average Humidity 75    
Maximum Humidity 87    
Minimum Humidity 61    
Precipitation  
Precipitation 0.00 in - - ()
Sea Level Pressure  
Sea Level Pressure 30.11 in    
Wind  
Wind Speed 6 mph ()    
Max Wind Speed 10 mph    
Max Gust Speed 16 mph    
Visibility 10.0 miles    
Events      
Averages and records for this station are not official NWS values.
T = Trace of Precipitation, MM = Missing Value Source: Averaged Metar Reports

Daily Weather History Graph

Daily Weather History Graph

Search for Another Location

Airport or City:

Trip Planner

Search our weather history database for the weather conditions in past years. The results will help you decide how hot, cold, wet, or windy it might be!

Date:

Astronomy

Nov. 30, 2012 Rise Set
Actual Time 7:09 AM CST 5:12 PM CST
Civil Twilight 6:41 AM CST 5:40 PM CST
Nautical Twilight 6:10 AM CST 6:11 PM CST
Astronomical Twilight 5:40 AM CST 6:41 PM CST
Moon 7:07 PM CST (11/30) 8:42 AM CST (11/30)
Length of Visible Light 10h 58m
Length of Day
10h 03m
Waning Gibbous, 96% of the Moon is Illuminated
Nov 30
Waning Gibbous
Dec 6
Last Quarter
Dec 13
New
Dec 19
First Quarter
Dec 28
Full

Hourly Weather History & Observations

Time (CST) Temp. Windchill Dew Point Humidity Pressure Visibility Wind Dir Wind Speed Gust Speed Precip Events Conditions
12:15 AM 45.5 °F 42.5 °F 32.9 °F 61% 30.15 in 10.0 mi ESE 5.8 mph - N/A   Clear
12:35 AM 45.5 °F 42.5 °F 33.1 °F 62% 30.15 in 10.0 mi SE 5.8 mph - N/A   Clear
12:55 AM 45.1 °F 43.7 °F 33.1 °F 63% 30.15 in 10.0 mi SE 3.5 mph - N/A   Clear
1:15 AM 44.8 °F 42.4 °F 33.1 °F 64% 30.15 in 10.0 mi ESE 4.6 mph - N/A   Clear
1:35 AM 44.6 °F 42.2 °F 33.1 °F 64% 30.14 in 10.0 mi SE 4.6 mph - N/A   Clear
1:55 AM 44.8 °F 43.3 °F 33.1 °F 64% 30.14 in 10.0 mi SE 3.5 mph - N/A   Clear
2:15 AM 45.0 °F 42.6 °F 33.3 °F 64% 30.14 in 10.0 mi SE 4.6 mph - N/A   Clear
2:35 AM 45.1 °F 42.8 °F 33.8 °F 65% 30.14 in 10.0 mi SE 4.6 mph - N/A   Clear
2:55 AM 44.2 °F 41.8 °F 33.8 °F 67% 30.14 in 10.0 mi East 4.6 mph - N/A   Clear
3:15 AM 44.6 °F 41.4 °F 34.2 °F 67% 30.13 in 10.0 mi ESE 5.8 mph - N/A   Clear
3:35 AM 44.2 °F 41.8 °F 34.0 °F 67% 30.13 in 10.0 mi ESE 4.6 mph - N/A   Clear
3:55 AM 44.1 °F 41.5 °F 34.3 °F 69% 30.13 in 10.0 mi ESE 4.6 mph - N/A   Clear
4:15 AM 44.1 °F 42.5 °F 34.7 °F 70% 30.13 in 10.0 mi SE 3.5 mph - N/A   Clear
4:35 AM 43.9 °F 40.5 °F 35.2 °F 72% 30.13 in 10.0 mi ESE 5.8 mph - N/A   Clear
4:55 AM 44.1 °F - 35.1 °F 71% 30.13 in 10.0 mi Calm Calm - N/A   Clear
5:15 AM 43.3 °F 40.7 °F 34.9 °F 72% 30.13 in 10.0 mi East 4.6 mph - N/A   Scattered Clouds
5:35 AM 45.9 °F 42.9 °F 36.3 °F 69% 30.13 in 10.0 mi ESE 5.8 mph - N/A   Overcast
5:55 AM 46.6 °F - 36.5 °F 68% 30.14 in 10.0 mi East 9.2 mph - N/A   Overcast
6:15 AM 47.5 °F - 37.4 °F 68% 30.15 in 10.0 mi ESE 5.8 mph - N/A   Overcast
6:35 AM 48.4 °F - 38.8 °F 70% 30.15 in 10.0 mi ESE 5.8 mph - N/A   Overcast
6:55 AM 49.5 °F - 40.1 °F 70% 30.15 in 10.0 mi SE 6.9 mph - N/A   Overcast
7:15 AM 50.0 °F - 40.5 °F 70% 30.15 in 10.0 mi SE 5.8 mph - N/A   Overcast
7:35 AM 50.4 °F - 41.0 °F 70% 30.16 in 10.0 mi SE 6.9 mph - N/A   Overcast
7:55 AM 50.9 °F - 41.5 °F 70% 30.16 in 10.0 mi SE 6.9 mph - N/A   Overcast
8:15 AM 51.3 °F - 42.1 °F 71% 30.17 in 10.0 mi SSE 6.9 mph - N/A   Overcast
8:35 AM 52.0 °F - 43.7 °F 73% 30.17 in 10.0 mi SSE 6.9 mph - N/A   Overcast
8:55 AM 52.7 °F - 44.8 °F 74% 30.17 in 10.0 mi SSE 6.9 mph - N/A   Overcast
9:15 AM 53.6 °F - 45.7 °F 75% 30.18 in 10.0 mi SSE 6.9 mph - N/A   Overcast
9:35 AM 54.1 °F - 46.6 °F 76% 30.18 in 10.0 mi SSE 6.9 mph - N/A   Overcast
9:55 AM 55.6 °F - 48.4 °F 77% 30.18 in 10.0 mi South 9.2 mph - N/A   Overcast
10:15 AM 56.8 °F - 50.2 °F 78% 30.18 in 10.0 mi South 5.8 mph - N/A   Overcast
10:35 AM 57.6 °F - 51.6 °F 81% 30.18 in 10.0 mi South 8.1 mph - N/A   Overcast
10:55 AM 58.3 °F - 52.2 °F 80% 30.17 in 10.0 mi SSW 6.9 mph - N/A   Overcast
11:15 AM 59.5 °F - 52.9 °F 79% 30.17 in 10.0 mi South 10.4 mph - N/A   Overcast
11:35 AM 60.1 °F - 53.2 °F 78% 30.16 in 10.0 mi South 6.9 mph - N/A   Overcast
11:55 AM 61.0 °F - 53.8 °F 77% 30.15 in 7.0 mi South 9.2 mph - N/A   Overcast
12:15 PM 62.1 °F - 54.1 °F 75% 30.14 in 10.0 mi South 10.4 mph - N/A   Overcast
12:35 PM 62.6 °F - 54.5 °F 75% 30.13 in 10.0 mi South 9.2 mph - N/A   Overcast
12:55 PM 63.0 °F - 54.7 °F 74% 30.11 in 10.0 mi SSW 5.8 mph - N/A   Overcast
1:15 PM 63.1 °F - 54.9 °F 74% 30.10 in 10.0 mi South 8.1 mph 16.1 mph N/A   Overcast
1:35 PM 63.7 °F - 55.4 °F 74% 30.09 in 10.0 mi SSE 9.2 mph - N/A   Overcast
1:55 PM 64.2 °F - 55.4 °F 73% 30.09 in 10.0 mi South 9.2 mph - N/A   Overcast
2:15 PM 63.0 °F - 55.4 °F 76% 30.08 in 10.0 mi South 10.4 mph - N/A   Overcast
2:35 PM 63.3 °F - 55.6 °F 76% 30.07 in 10.0 mi SSE 9.2 mph - N/A   Overcast
2:55 PM 63.3 °F - 55.6 °F 76% 30.06 in 10.0 mi SSE 9.2 mph - N/A   Overcast
3:15 PM 63.0 °F - 55.8 °F 77% 30.06 in 10.0 mi SSE 8.1 mph - N/A   Overcast
3:35 PM 63.5 °F - 56.3 °F 77% 30.06 in 10.0 mi SSE 8.1 mph - N/A   Overcast
3:55 PM 63.9 °F - 56.3 °F 76% 30.07 in 10.0 mi South 10.4 mph - N/A   Overcast
4:15 PM 64.0 °F - 56.3 °F 76% 30.07 in 10.0 mi South 8.1 mph - N/A   Overcast
4:35 PM 64.2 °F - 56.5 °F 76% 30.07 in 10.0 mi South 5.8 mph - N/A   Overcast
4:55 PM 64.0 °F - 56.7 °F 77% 30.07 in 10.0 mi SSE 3.5 mph - N/A   Overcast
5:15 PM 63.7 °F - 56.7 °F 78% 30.07 in 10.0 mi SE 3.5 mph - N/A   Overcast
5:35 PM 63.1 °F - 56.7 °F 79% 30.07 in 10.0 mi SE 3.5 mph - N/A   Overcast
5:55 PM 61.9 °F - 56.3 °F 82% 30.06 in 10.0 mi SE 4.6 mph - N/A   Overcast
6:15 PM 61.0 °F - 55.8 °F 83% 30.06 in 10.0 mi ESE 4.6 mph - N/A   Mostly Cloudy
6:35 PM 60.8 °F - 55.6 °F 83% 30.07 in 10.0 mi ESE 6.9 mph - N/A   Overcast
7:15 PM 60.3 °F - 54.7 °F 82% 30.06 in 10.0 mi ESE 6.9 mph - N/A   Overcast
7:35 PM 60.8 °F - 54.9 °F 81% 30.07 in 10.0 mi ESE 5.8 mph - N/A   Overcast
7:55 PM 60.4 °F - 54.9 °F 82% 30.07 in 10.0 mi ESE 5.8 mph - N/A   Overcast
8:15 PM 60.6 °F - 55.0 °F 82% 30.07 in 10.0 mi SE 4.6 mph - N/A   Overcast
8:35 PM 61.7 °F - 55.8 °F 81% 30.08 in 10.0 mi SE 4.6 mph - N/A   Overcast
8:55 PM 61.7 °F - 56.3 °F 82% 30.07 in 10.0 mi SE 6.9 mph - N/A   Overcast
9:15 PM 61.0 °F - 56.1 °F 84% 30.07 in 10.0 mi SE 8.1 mph - N/A   Overcast
9:35 PM 60.1 °F - 56.1 °F 87% 30.07 in 10.0 mi SE 6.9 mph - N/A   Mostly Cloudy
9:55 PM 61.0 °F - 56.5 °F 85% 30.07 in 10.0 mi SE 4.6 mph - N/A   Mostly Cloudy
10:15 PM 61.2 °F - 56.7 °F 85% 30.07 in 10.0 mi SE 8.1 mph - N/A   Overcast
10:35 PM 61.2 °F - 56.8 °F 86% 30.07 in 10.0 mi SE 6.9 mph - N/A   Overcast
10:55 PM 61.3 °F - 57.2 °F 86% 30.07 in 10.0 mi SSE 5.8 mph - N/A   Overcast
11:15 PM 62.2 °F - 57.4 °F 84% 30.07 in 10.0 mi SSE 9.2 mph - N/A   Overcast
11:35 PM 62.6 °F - 57.4 °F 83% 30.07 in 10.0 mi SSE 9.2 mph 16.1 mph N/A   Overcast